Time;durP1;ratioP1;P1;durP2;ratioP2;P2;SDS_P1;SDS_P2;PMS_P1;PMS_P2;Temp;Humidity;BMP_temperature;BMP_pressure;BME280_temperature;BME280_humidity;BME280_pressure;Samples;Min_cycle;Max_cycle;Signal;HPM_P1;HPM_P2
2022/04/05 00:02:25;;;;;;;10.27;6.47;;;5.50;99.90;;;;;;5058593;28;20289;-62
2022/04/05 00:04:50;;;;;;;4.30;3.07;;;5.40;99.90;;;;;;5055318;28;20741;-62
2022/04/05 00:07:16;;;;;;;8.10;5.73;;;5.40;99.90;;;;;;5067503;28;20183;-61
2022/04/05 00:09:41;;;;;;;6.50;4.90;;;5.30;99.90;;;;;;5065526;28;20247;-61
2022/04/05 00:12:08;;;;;;;8.63;5.40;;;5.30;99.90;;;;;;5056398;28;20546;-62
2022/04/05 00:14:34;;;;;;;6.83;4.00;;;5.30;99.90;;;;;;5056657;28;20217;-61
2022/04/05 00:16:59;;;;;;;5.70;3.43;;;5.30;99.90;;;;;;5067579;28;20186;-61
2022/04/05 00:19:25;;;;;;;7.03;3.13;;;5.30;99.90;;;;;;5060535;28;20178;-61
2022/04/05 00:21:51;;;;;;;8.80;3.27;;;5.30;99.90;;;;;;5046124;28;20376;-60
2022/04/05 00:24:16;;;;;;;5.17;3.20;;;5.30;99.90;;;;;;5066471;28;20256;-61
2022/04/05 00:26:42;;;;;;;7.40;3.40;;;5.30;99.90;;;;;;5065251;28;20569;-61
2022/04/05 00:29:08;;;;;;;8.10;3.00;;;5.30;99.90;;;;;;5059803;28;20306;-60
2022/04/05 00:31:34;;;;;;;4.63;3.47;;;5.20;99.90;;;;;;5063095;28;20198;-60
2022/04/05 00:33:59;;;;;;;5.50;3.90;;;5.20;99.90;;;;;;5053281;28;20232;-60
2022/04/05 00:36:24;;;;;;;7.47;3.27;;;5.20;99.90;;;;;;5046560;28;20198;-60
2022/04/05 00:38:50;;;;;;;6.93;2.80;;;5.30;99.90;;;;;;5055913;28;20652;-61
2022/04/05 00:41:15;;;;;;;7.13;2.37;;;5.20;99.90;;;;;;5049111;28;20221;-60
2022/04/05 00:43:41;;;;;;;4.30;2.60;;;5.30;99.90;;;;;;5054671;28;20652;-60
2022/04/05 00:46:07;;;;;;;7.10;3.00;;;5.30;99.90;;;;;;5046808;28;20235;-60
2022/04/05 00:48:50;;;;;;;10.37;3.03;;;5.30;99.90;;;;;;5047346;28;20639;-61
2022/04/05 00:51:17;;;;;;;9.97;5.03;;;5.30;99.90;;;;;;5063756;28;20698;-62
2022/04/05 00:53:46;;;;;;;5.90;3.40;;;5.30;99.90;;;;;;5066682;28;20198;-62
2022/04/05 00:56:14;;;;;;;11.60;4.97;;;5.30;99.90;;;;;;5057399;28;20293;-62
2022/04/05 00:58:41;;;;;;;5.67;3.80;;;5.30;99.90;;;;;;5054928;28;20191;-62
2022/04/05 01:01:09;;;;;;;7.30;4.57;;;5.40;99.90;;;;;;5062731;28;20196;-62
2022/04/05 01:03:35;;;;;;;9.70;4.43;;;5.40;99.90;;;;;;5066045;28;20243;-62
2022/04/05 01:06:01;;;;;;;8.73;6.07;;;5.50;99.90;;;;;;5047105;28;20198;-62
2022/04/05 01:08:28;;;;;;;13.47;5.37;;;5.50;99.90;;;;;;5052142;28;20198;-62
2022/04/05 01:10:54;;;;;;;7.33;3.90;;;5.50;99.90;;;;;;5045040;28;20612;-61
2022/04/05 01:13:20;;;;;;;7.00;3.90;;;5.50;99.90;;;;;;5062333;28;20274;-61
2022/04/05 01:15:45;;;;;;;12.13;5.13;;;5.50;99.90;;;;;;5051577;28;20298;-61
2022/04/05 01:18:13;;;;;;;9.53;3.80;;;5.50;99.90;;;;;;5063925;28;20186;-61
2022/04/05 01:20:39;;;;;;;4.10;2.67;;;5.50;99.90;;;;;;5063948;28;20213;-61
2022/04/05 01:23:04;;;;;;;8.00;4.00;;;5.50;99.90;;;;;;5064105;28;20242;-61
2022/04/05 01:25:30;;;;;;;9.27;3.77;;;5.50;99.90;;;;;;5054521;28;20236;-61
2022/04/05 01:27:55;;;;;;;6.20;5.20;;;5.50;99.90;;;;;;5060005;28;20198;-61
2022/04/05 01:30:21;;;;;;;11.93;4.50;;;5.50;99.90;;;;;;5051796;28;20729;-61
2022/04/05 01:32:46;;;;;;;12.00;3.97;;;5.50;99.90;;;;;;5066268;28;20280;-61
2022/04/05 01:35:14;;;;;;;7.17;2.40;;;5.50;99.90;;;;;;5053067;28;20226;-62
2022/04/05 01:37:40;;;;;;;11.03;3.23;;;5.50;99.90;;;;;;5061520;28;20254;-61
2022/04/05 01:40:05;;;;;;;7.70;2.70;;;5.40;99.90;;;;;;5050728;28;20626;-61
2022/04/05 01:42:33;;;;;;;5.07;2.23;;;5.40;99.90;;;;;;5055407;28;20183;-61
2022/04/05 01:44:59;;;;;;;7.30;2.77;;;5.40;99.90;;;;;;5057566;28;20195;-61
2022/04/05 01:47:25;;;;;;;6.50;2.90;;;5.50;99.90;;;;;;5056027;28;20264;-61
2022/04/05 01:49:50;;;;;;;6.43;2.53;;;5.50;99.90;;;;;;5054332;28;20212;-60
2022/04/05 01:52:16;;;;;;;14.73;2.50;;;5.50;99.90;;;;;;5057923;28;20231;-66
2022/04/05 01:54:42;;;;;;;11.23;2.57;;;5.50;99.90;;;;;;5052994;28;20222;-66
2022/04/05 01:57:08;;;;;;;5.73;1.90;;;5.60;99.90;;;;;;5065708;28;20189;-66
2022/04/05 01:59:36;;;;;;;2.67;1.67;;;5.60;99.90;;;;;;5053339;28;20289;-66
2022/04/05 02:02:06;;;;;;;5.57;2.27;;;5.60;99.90;;;;;;5055631;28;20225;-65
2022/04/05 02:04:32;;;;;;;5.17;1.83;;;5.70;99.90;;;;;;5056594;28;20222;-65
2022/04/05 02:06:57;;;;;;;10.60;2.60;;;5.70;99.90;;;;;;5058635;28;20213;-65
2022/04/05 02:09:23;;;;;;;12.57;2.60;;;5.70;99.90;;;;;;5064809;28;20715;-65
2022/04/05 02:11:48;;;;;;;5.33;2.07;;;5.80;99.90;;;;;;5059422;28;20210;-66
2022/04/05 02:14:15;;;;;;;10.07;2.80;;;5.70;99.90;;;;;;5056385;28;20245;-66
2022/04/05 02:16:42;;;;;;;8.80;2.50;;;5.70;99.90;;;;;;5053114;28;20939;-66
2022/04/05 02:19:07;;;;;;;5.57;1.93;;;5.80;99.90;;;;;;5061650;28;20235;-66
2022/04/05 02:21:33;;;;;;;6.13;1.93;;;5.80;99.90;;;;;;5055414;28;20617;-66
2022/04/05 02:23:59;;;;;;;4.30;1.83;;;5.70;99.90;;;;;;5064070;28;20664;-67
2022/04/05 02:26:25;;;;;;;5.07;2.83;;;5.80;99.90;;;;;;5062005;28;20222;-67
2022/04/05 02:28:51;;;;;;;9.20;2.30;;;5.80;99.90;;;;;;5055867;28;20651;-68
2022/04/05 02:31:16;;;;;;;8.03;3.07;;;5.80;99.90;;;;;;5063351;28;20240;-69
2022/04/05 02:33:42;;;;;;;5.33;2.13;;;5.80;99.90;;;;;;5062933;28;20217;-68
2022/04/05 02:36:08;;;;;;;1.77;1.17;;;5.80;99.90;;;;;;5048591;28;20348;-67
2022/04/05 02:38:34;;;;;;;7.40;2.33;;;5.80;99.90;;;;;;5062162;28;20205;-68
2022/04/05 02:41:01;;;;;;;8.40;2.77;;;5.70;99.90;;;;;;5063531;28;20201;-69
2022/04/05 02:43:27;;;;;;;9.87;2.73;;;5.70;99.90;;;;;;5047412;28;20588;-69
2022/04/05 02:45:55;;;;;;;6.13;2.07;;;5.80;99.90;;;;;;5049629;28;20206;-66
2022/04/05 02:48:21;;;;;;;9.03;2.30;;;5.70;99.90;;;;;;5042878;28;20680;-65
2022/04/05 02:50:47;;;;;;;5.77;2.47;;;5.70;99.90;;;;;;5053764;28;20692;-67
2022/04/05 02:53:12;;;;;;;5.40;1.93;;;5.80;99.90;;;;;;5053619;28;20267;-66
2022/04/05 02:55:38;;;;;;;3.07;2.53;;;5.80;99.90;;;;;;5051873;28;20561;-65
2022/04/05 02:58:04;;;;;;;9.17;3.30;;;5.70;99.90;;;;;;5043444;28;20313;-65
2022/04/05 03:00:29;;;;;;;12.23;2.83;;;5.70;99.90;;;;;;5059794;28;20190;-71
2022/04/05 03:02:55;;;;;;;7.97;2.63;;;5.70;99.90;;;;;;5049809;28;20198;-63
2022/04/05 03:05:22;;;;;;;8.03;2.60;;;5.70;99.90;;;;;;5047645;28;20274;-63
2022/04/05 03:07:48;;;;;;;3.20;2.13;;;5.70;99.90;;;;;;5043084;28;20218;-63
2022/04/05 03:10:14;;;;;;;6.53;1.83;;;5.70;99.90;;;;;;5051454;28;20197;-65
2022/04/05 03:12:39;;;;;;;9.47;1.80;;;5.70;99.90;;;;;;5054165;28;20966;-65
2022/04/05 03:15:07;;;;;;;9.50;2.40;;;5.70;99.90;;;;;;5059672;28;20217;-64
2022/04/05 03:17:34;;;;;;;9.73;2.30;;;5.60;99.90;;;;;;5049965;28;20688;-65
2022/04/05 03:20:00;;;;;;;5.40;2.47;;;5.70;99.90;;;;;;5063763;28;20229;-65
2022/04/05 03:22:26;;;;;;;9.23;2.20;;;5.70;99.90;;;;;;5061807;28;20309;-66
2022/04/05 03:24:52;;;;;;;7.80;2.73;;;5.70;99.90;;;;;;5054547;28;20619;-65
2022/04/05 03:27:17;;;;;;;3.73;1.77;;;5.70;99.90;;;;;;5054584;28;20206;-65
2022/04/05 03:29:43;;;;;;;3.63;1.60;;;5.70;99.90;;;;;;5053050;28;20194;-65
2022/04/05 03:32:11;;;;;;;5.10;2.23;;;5.70;99.90;;;;;;5050894;28;20297;-66
2022/04/05 03:34:37;;;;;;;9.63;2.53;;;5.80;99.90;;;;;;5062789;28;20732;-66
2022/04/05 03:37:03;;;;;;;8.10;1.63;;;5.80;99.90;;;;;;5056058;28;20194;-65
2022/04/05 03:39:28;;;;;;;9.67;2.20;;;5.80;99.90;;;;;;5055659;28;20248;-65
2022/04/05 03:41:54;;;;;;;5.53;2.40;;;5.70;99.90;;;;;;5057753;28;20245;-66
2022/04/05 03:44:19;;;;;;;5.17;1.60;;;5.80;99.90;;;;;;5056179;28;20192;-66
2022/04/05 03:46:45;;;;;;;14.33;3.00;;;5.70;99.90;;;;;;5054885;28;20758;-65
2022/04/05 03:49:10;;;;;;;18.97;5.23;;;5.70;99.90;;;;;;5058929;28;20190;-66
2022/04/05 03:51:35;;;;;;;6.30;2.23;;;5.70;99.90;;;;;;5048542;28;20227;-66
2022/04/05 03:54:01;;;;;;;10.80;2.77;;;5.70;99.90;;;;;;5065029;28;20576;-66
2022/04/05 03:56:26;;;;;;;8.30;2.47;;;5.80;99.90;;;;;;5061957;28;20201;-66
2022/04/05 03:58:52;;;;;;;6.83;2.23;;;5.80;99.90;;;;;;5055013;28;20267;-66
2022/04/05 04:01:18;;;;;;;11.07;2.93;;;5.80;99.90;;;;;;5052085;28;20194;-65
2022/04/05 04:03:50;;;;;;;7.23;2.30;;;5.80;99.90;;;;;;5062785;28;20281;-66
2022/04/05 04:06:15;;;;;;;6.70;2.43;;;5.80;99.90;;;;;;5049592;28;20197;-66
2022/04/05 04:08:41;;;;;;;6.20;2.57;;;5.70;99.90;;;;;;5067627;28;20194;-66
2022/04/05 04:11:06;;;;;;;6.20;2.30;;;5.70;99.90;;;;;;5056498;28;20214;-65
2022/04/05 04:13:32;;;;;;;7.93;2.50;;;5.70;99.90;;;;;;5066875;28;20237;-66
2022/04/05 04:15:57;;;;;;;9.40;2.00;;;5.70;99.90;;;;;;5059869;28;20210;-67
2022/04/05 04:18:23;;;;;;;15.73;3.53;;;5.70;99.90;;;;;;5050361;28;20214;-67
2022/04/05 04:20:48;;;;;;;5.57;1.97;;;5.70;99.90;;;;;;5067018;28;20660;-67
2022/04/05 04:23:15;;;;;;;6.30;2.10;;;5.70;99.90;;;;;;5055933;28;20199;-66
2022/04/05 04:25:40;;;;;;;7.13;2.80;;;5.60;99.90;;;;;;5049746;28;20700;-66
2022/04/05 04:28:07;;;;;;;8.50;2.13;;;5.70;99.90;;;;;;5065265;28;20679;-66
2022/04/05 04:30:34;;;;;;;10.50;2.20;;;5.60;99.90;;;;;;5061195;28;20614;-66
2022/04/05 04:33:00;;;;;;;11.53;2.97;;;5.60;99.90;;;;;;5057494;28;20684;-67
2022/04/05 04:35:26;;;;;;;12.93;2.87;;;5.60;99.90;;;;;;5056083;28;20766;-66
2022/04/05 04:37:52;;;;;;;3.57;2.23;;;5.60;99.90;;;;;;5050196;28;20209;-66
2022/04/05 04:40:18;;;;;;;9.07;2.53;;;5.60;99.90;;;;;;5055192;28;20198;-66
2022/04/05 04:42:44;;;;;;;9.27;3.43;;;5.60;99.90;;;;;;5045842;28;20285;-65
2022/04/05 04:45:10;;;;;;;10.77;2.43;;;5.60;99.90;;;;;;5058985;28;20281;-65
2022/04/05 04:47:35;;;;;;;10.10;3.07;;;5.60;99.90;;;;;;5060866;28;20627;-65
2022/04/05 04:50:01;;;;;;;6.43;2.40;;;5.60;99.90;;;;;;5066679;28;20293;-65
2022/04/05 04:52:26;;;;;;;9.17;2.77;;;5.60;99.90;;;;;;5053439;28;20226;-65
2022/04/05 04:54:52;;;;;;;3.27;2.00;;;5.60;99.90;;;;;;5052879;28;20249;-66
2022/04/05 04:57:18;;;;;;;11.73;2.57;;;5.60;99.90;;;;;;5047743;28;20688;-64
2022/04/05 04:59:44;;;;;;;8.47;2.30;;;5.60;99.90;;;;;;5066029;28;20667;-65
2022/04/05 05:02:10;;;;;;;11.20;2.53;;;5.60;99.90;;;;;;5064364;28;20194;-65
2022/04/05 05:04:35;;;;;;;11.43;2.97;;;5.60;99.90;;;;;;5066076;28;20255;-65
2022/04/05 05:07:01;;;;;;;8.03;2.40;;;5.60;99.90;;;;;;5064155;28;20397;-65
2022/04/05 05:09:27;;;;;;;8.57;2.17;;;5.60;99.90;;;;;;5052142;28;20186;-65
2022/04/05 05:11:53;;;;;;;17.33;2.33;;;5.60;99.90;;;;;;5051040;28;20210;-66
2022/04/05 05:14:19;;;;;;;6.43;2.67;;;5.60;99.90;;;;;;5066166;28;20209;-65
2022/04/05 05:16:44;;;;;;;12.30;2.40;;;5.60;99.90;;;;;;5055240;28;20282;-65
2022/04/05 05:19:09;;;;;;;7.53;3.07;;;5.60;99.90;;;;;;5057031;28;20185;-65
2022/04/05 05:21:35;;;;;;;5.10;2.50;;;5.60;99.90;;;;;;5059081;28;20843;-65
2022/04/05 05:24:01;;;;;;;5.03;1.83;;;5.60;99.90;;;;;;5058279;28;20190;-66
2022/04/05 05:26:26;;;;;;;5.53;2.13;;;5.60;99.90;;;;;;5063013;28;20650;-66
2022/04/05 05:28:52;;;;;;;7.77;2.27;;;5.60;99.90;;;;;;5057243;28;20187;-66
2022/04/05 05:31:17;;;;;;;12.13;2.73;;;5.60;99.90;;;;;;5054531;28;20190;-65
2022/04/05 05:33:42;;;;;;;5.47;2.33;;;5.60;99.90;;;;;;5065731;28;20643;-65
2022/04/05 05:36:08;;;;;;;6.77;2.57;;;5.60;99.90;;;;;;5058756;28;20190;-65
2022/04/05 05:38:33;;;;;;;8.63;3.83;;;5.60;99.90;;;;;;5053782;28;20276;-64
2022/04/05 05:40:59;;;;;;;3.33;2.37;;;5.60;99.90;;;;;;5059768;28;20197;-66
2022/04/05 05:43:25;;;;;;;6.40;2.50;;;5.60;99.90;;;;;;5058585;28;20566;-66
2022/04/05 05:45:51;;;;;;;6.67;2.40;;;5.60;99.90;;;;;;5058674;28;20198;-66
2022/04/05 05:48:17;;;;;;;5.37;2.20;;;5.70;99.90;;;;;;5051645;28;20291;-65
2022/04/05 05:50:42;;;;;;;11.00;2.60;;;5.70;99.90;;;;;;5058001;28;20252;-65
2022/04/05 05:53:08;;;;;;;8.77;2.83;;;5.70;99.90;;;;;;5057999;28;20424;-65
2022/04/05 05:55:35;;;;;;;9.17;2.80;;;5.70;99.90;;;;;;5057904;28;20208;-65
2022/04/05 05:58:02;;;;;;;8.83;3.10;;;5.70;99.90;;;;;;5055100;28;20732;-65
2022/04/05 06:00:28;;;;;;;11.57;2.20;;;5.70;99.90;;;;;;5065171;28;20222;-65
2022/04/05 06:02:58;;;;;;;8.80;2.93;;;5.80;99.90;;;;;;5058544;28;20299;-65
2022/04/05 06:05:24;;;;;;;5.67;1.53;;;5.80;99.90;;;;;;5057962;28;20255;-66
2022/04/05 06:07:50;;;;;;;8.77;2.30;;;5.80;99.90;;;;;;5051911;28;20757;-65
2022/04/05 06:10:16;;;;;;;6.57;1.90;;;5.80;99.90;;;;;;5055119;28;20237;-65
2022/04/05 06:12:45;;;;;;;9.73;2.47;;;5.70;99.90;;;;;;5046881;28;20202;-66
2022/04/05 06:15:13;;;;;;;7.00;2.00;;;5.70;99.90;;;;;;5052365;28;20213;-65
2022/04/05 06:17:49;;;;;;;6.40;1.87;;;5.60;99.90;;;;;;5043478;28;20205;-65
2022/04/05 06:20:17;;;;;;;8.27;2.43;;;5.60;99.90;;;;;;5064985;28;20188;-65
2022/04/05 06:22:53;;;;;;;4.10;2.30;;;5.60;99.90;;;;;;5043145;28;20234;-65
2022/04/05 06:25:21;;;;;;;8.17;2.70;;;5.70;99.90;;;;;;5055113;28;20619;-66
2022/04/05 06:27:47;;;;;;;8.63;3.67;;;5.80;99.90;;;;;;5059136;28;20206;-66
2022/04/05 06:30:14;;;;;;;5.63;2.13;;;5.90;99.90;;;;;;5047962;28;20230;-65
2022/04/05 06:32:40;;;;;;;6.50;2.70;;;5.90;99.90;;;;;;5043431;28;20238;-65
2022/04/05 06:35:07;;;;;;;5.97;2.17;;;5.90;99.90;;;;;;5047468;28;20232;-66
2022/04/05 06:37:35;;;;;;;6.63;1.93;;;5.90;99.90;;;;;;5062824;28;20194;-66
2022/04/05 06:40:02;;;;;;;6.40;2.13;;;5.90;99.90;;;;;;5054063;28;20191;-66
2022/04/05 06:42:29;;;;;;;5.80;2.03;;;5.90;99.90;;;;;;5055381;28;20205;-65
2022/04/05 06:44:54;;;;;;;5.47;1.63;;;5.90;99.90;;;;;;5058138;28;20224;-65
2022/04/05 06:47:20;;;;;;;4.37;2.30;;;5.90;99.90;;;;;;5043299;28;20661;-65
2022/04/05 06:49:45;;;;;;;5.67;2.10;;;6.00;99.90;;;;;;5048484;28;20194;-65
2022/04/05 06:52:11;;;;;;;7.80;2.73;;;5.90;99.90;;;;;;5061876;28;20631;-65
2022/04/05 06:54:37;;;;;;;4.97;1.90;;;5.90;99.90;;;;;;5064400;28;20214;-65
2022/04/05 06:57:03;;;;;;;8.83;2.23;;;5.90;99.90;;;;;;5062723;28;20198;-65
2022/04/05 06:59:29;;;;;;;6.57;1.90;;;5.90;99.90;;;;;;5064464;28;20549;-65
2022/04/05 07:01:54;;;;;;;3.57;1.73;;;5.90;99.90;;;;;;5049887;28;20200;-65
2022/04/05 07:04:20;;;;;;;4.67;1.93;;;5.90;99.90;;;;;;5064650;28;20185;-65
2022/04/05 07:06:45;;;;;;;3.80;1.57;;;6.00;99.90;;;;;;5050821;28;20204;-65
2022/04/05 07:09:11;;;;;;;3.57;1.97;;;6.10;99.90;;;;;;5057375;28;20546;-65
2022/04/05 07:11:37;;;;;;;4.27;1.47;;;6.20;99.90;;;;;;5049089;28;20194;-65
2022/04/05 07:14:02;;;;;;;7.20;2.17;;;6.10;99.90;;;;;;5056486;28;20266;-65
2022/04/05 07:16:28;;;;;;;15.13;2.80;;;6.20;99.90;;;;;;5056356;28;20628;-66
2022/04/05 07:18:54;;;;;;;4.97;2.07;;;6.30;99.90;;;;;;5055461;28;20178;-65
2022/04/05 07:21:20;;;;;;;6.30;1.53;;;6.20;99.90;;;;;;5057810;28;20596;-65
2022/04/05 07:23:47;;;;;;;4.87;1.60;;;6.30;99.90;;;;;;5056273;28;20221;-64
2022/04/05 07:26:13;;;;;;;2.77;1.33;;;6.30;99.90;;;;;;5057461;28;20213;-64
2022/04/05 07:28:38;;;;;;;6.13;1.57;;;6.20;99.90;;;;;;5050889;28;20217;-65
2022/04/05 07:31:04;;;;;;;11.07;1.97;;;6.40;99.90;;;;;;5055142;28;20545;-65
2022/04/05 07:33:30;;;;;;;3.87;2.10;;;6.50;99.90;;;;;;5056379;28;20245;-65
2022/04/05 07:35:56;;;;;;;4.37;1.17;;;6.50;99.90;;;;;;5054010;28;20203;-65
2022/04/05 07:38:21;;;;;;;1.93;0.97;;;6.50;99.90;;;;;;5065493;28;20194;-65
2022/04/05 07:40:51;;;;;;;2.50;1.30;;;6.40;99.90;;;;;;5056393;28;20667;-66
2022/04/05 07:43:18;;;;;;;5.07;2.37;;;6.40;99.90;;;;;;5053809;28;20576;-65
2022/04/05 07:45:44;;;;;;;4.60;1.70;;;6.50;99.90;;;;;;5059915;28;20657;-65
2022/04/05 07:48:11;;;;;;;5.10;1.30;;;6.60;99.90;;;;;;5046948;28;20225;-65
2022/04/05 07:50:36;;;;;;;5.13;1.70;;;6.60;99.90;;;;;;5059751;28;20263;-66
2022/04/05 07:53:02;;;;;;;4.50;1.40;;;6.70;99.90;;;;;;5066113;28;20210;-66
2022/04/05 07:55:28;;;;;;;5.63;2.03;;;6.50;99.90;;;;;;5067515;28;20289;-66
2022/04/05 07:57:54;;;;;;;7.67;1.40;;;6.50;99.90;;;;;;5064837;28;20213;-66
2022/04/05 08:00:20;;;;;;;4.70;1.77;;;6.70;99.90;;;;;;5058945;28;20191;-66
2022/04/05 08:02:46;;;;;;;3.73;1.37;;;6.90;99.90;;;;;;5062418;28;20289;-67
2022/04/05 08:05:12;;;;;;;3.13;1.53;;;6.90;99.90;;;;;;5063533;28;20281;-67
2022/04/05 08:07:38;;;;;;;3.90;1.53;;;6.80;99.90;;;;;;5052556;28;20249;-67
2022/04/05 08:10:04;;;;;;;6.40;1.30;;;6.60;99.90;;;;;;5063743;28;20676;-66
2022/04/05 08:12:43;;;;;;;1.97;0.97;;;6.60;99.90;;;;;;5045992;28;20267;-67
2022/04/05 08:15:13;;;;;;;6.30;1.17;;;6.60;99.90;;;;;;5067908;28;20209;-64
2022/04/05 08:17:39;;;;;;;2.30;0.93;;;6.70;99.90;;;;;;5062752;28;20202;-65
2022/04/05 08:20:05;;;;;;;0.67;0.67;;;6.70;99.90;;;;;;5060790;28;20197;-66
2022/04/05 08:22:31;;;;;;;1.97;0.90;;;6.80;99.90;;;;;;5064726;28;20209;-66
2022/04/05 08:24:57;;;;;;;2.50;1.17;;;6.70;99.90;;;;;;5049097;28;20190;-66
2022/04/05 08:27:22;;;;;;;5.53;1.10;;;6.70;99.90;;;;;;5056327;28;20229;-66
2022/04/05 08:29:48;;;;;;;4.07;1.63;;;6.80;99.90;;;;;;5067599;28;20293;-65
2022/04/05 08:32:13;;;;;;;3.93;1.70;;;6.90;99.90;;;;;;5057416;28;20210;-66
2022/04/05 08:34:41;;;;;;;5.07;1.53;;;6.70;99.90;;;;;;5062703;28;20309;-66
2022/04/05 08:37:08;;;;;;;8.83;1.40;;;6.80;99.90;;;;;;5060253;28;20198;-66
2022/04/05 08:39:35;;;;;;;7.00;1.80;;;6.90;99.90;;;;;;5061855;28;20680;-66
2022/04/05 08:42:03;;;;;;;4.43;1.20;;;6.90;99.90;;;;;;5056270;28;20226;-67
2022/04/05 08:44:29;;;;;;;3.57;2.03;;;7.00;99.90;;;;;;5055708;28;20622;-66
2022/04/05 08:46:54;;;;;;;1.97;1.17;;;7.20;99.90;;;;;;5054316;28;20226;-66
2022/04/05 08:49:22;;;;;;;8.20;1.63;;;7.30;99.90;;;;;;5058948;28;20217;-67
2022/04/05 08:51:49;;;;;;;2.97;1.77;;;7.50;99.90;;;;;;5056762;28;20304;-67
2022/04/05 08:54:15;;;;;;;5.70;1.53;;;7.60;99.90;;;;;;5054394;28;20198;-65
2022/04/05 08:56:41;;;;;;;3.10;1.37;;;7.70;99.90;;;;;;5056450;28;20255;-68
2022/04/05 08:59:06;;;;;;;7.90;1.67;;;7.70;99.90;;;;;;5053758;28;20192;-66
2022/04/05 09:01:34;;;;;;;13.87;1.40;;;7.60;99.60;;;;;;5059893;28;20208;-61
2022/04/05 09:03:59;;;;;;;7.23;1.83;;;7.70;99.90;;;;;;5062154;28;20211;-60
2022/04/05 09:06:29;;;;;;;6.00;1.40;;;7.70;99.20;;;;;;5058513;28;20629;-60
2022/04/05 09:09:08;;;;;;;2.83;1.13;;;7.40;99.40;;;;;;5064103;28;20197;-59
2022/04/05 09:11:34;;;;;;;3.13;1.30;;;7.60;99.10;;;;;;5054532;28;20195;-61
2022/04/05 09:14:02;;;;;;;3.47;1.50;;;7.60;98.60;;;;;;5055297;28;20649;-60
2022/04/05 09:16:31;;;;;;;6.73;1.47;;;7.50;97.80;;;;;;5061401;28;20203;-61
2022/04/05 09:18:57;;;;;;;4.13;1.50;;;7.50;98.50;;;;;;5056289;28;20273;-60
2022/04/05 09:21:23;;;;;;;1.33;1.20;;;7.80;99.00;;;;;;5055717;28;20200;-61
2022/04/05 09:23:52;;;;;;;6.30;1.77;;;7.50;98.40;;;;;;5054739;28;20261;-60
2022/04/05 09:26:18;;;;;;;4.53;1.23;;;7.50;99.50;;;;;;5058793;28;20219;-66
2022/04/05 09:28:45;;;;;;;5.47;1.53;;;7.70;99.40;;;;;;5057833;28;20186;-67
2022/04/05 09:31:12;;;;;;;2.50;1.30;;;7.60;99.70;;;;;;5059371;28;20194;-66
2022/04/05 09:33:59;;;;;;;3.50;1.13;;;7.80;98.90;;;;;;5052372;28;20208;-67
2022/04/05 09:36:36;;;;;;;5.30;1.10;;;7.80;99.60;;;;;;5054660;28;20233;-65
2022/04/05 09:39:16;;;;;;;8.77;2.07;;;7.80;98.10;;;;;;5052148;28;20269;-66
2022/04/05 09:41:42;;;;;;;1.77;1.10;;;7.60;98.60;;;;;;5055368;28;20208;-65
2022/04/05 09:44:08;;;;;;;8.47;1.70;;;7.30;98.90;;;;;;5051396;28;20193;-66
2022/04/05 09:46:36;;;;;;;6.47;1.90;;;7.50;99.30;;;;;;5047654;28;20198;-67
2022/04/05 09:49:09;;;;;;;3.70;1.30;;;7.70;99.90;;;;;;5055993;28;20183;-68
2022/04/05 09:51:42;;;;;;;3.40;1.50;;;7.80;98.90;;;;;;5057701;28;20218;-69
2022/04/05 09:54:16;;;;;;;5.53;1.57;;;7.90;99.90;;;;;;5065870;28;20265;-67
2022/04/05 09:56:44;;;;;;;3.80;1.20;;;7.80;99.40;;;;;;5058571;28;20677;-66
2022/04/05 09:59:18;;;;;;;4.90;2.10;;;7.60;99.70;;;;;;5054932;28;20179;-66
2022/04/05 10:01:46;;;;;;;7.03;1.60;;;7.50;99.90;;;;;;5058666;28;20204;-65
2022/04/05 10:04:15;;;;;;;8.00;2.43;;;7.40;99.90;;;;;;5056634;28;20175;-66
2022/04/05 10:06:44;;;;;;;6.17;1.87;;;7.60;99.90;;;;;;5053251;28;20747;-67
2022/04/05 10:09:11;;;;;;;3.60;1.90;;;7.60;99.90;;;;;;5059158;28;20183;-67
2022/04/05 10:11:38;;;;;;;4.70;1.80;;;7.80;99.80;;;;;;5059368;28;20236;-66
2022/04/05 10:14:05;;;;;;;3.10;1.27;;;7.80;99.90;;;;;;5056397;28;20186;-66
2022/04/05 10:16:32;;;;;;;3.23;1.33;;;7.90;99.80;;;;;;5058649;28;20248;-68
2022/04/05 10:19:05;;;;;;;3.90;1.50;;;8.10;99.90;;;;;;5058988;28;20256;-67
2022/04/05 10:21:35;;;;;;;4.60;2.00;;;8.20;99.10;;;;;;5059609;28;20191;-67
2022/04/05 10:24:02;;;;;;;2.80;1.10;;;8.10;99.80;;;;;;5055654;28;20187;-65
2022/04/05 10:26:40;;;;;;;3.60;1.47;;;8.00;99.70;;;;;;5054012;28;20217;-66
2022/04/05 10:29:14;;;;;;;6.10;3.07;;;8.30;99.80;;;;;;5058492;28;20174;-66
2022/04/05 10:32:13;;;;;;;6.13;1.73;;;8.40;99.40;;;;;;5054518;28;20283;-66
2022/04/05 10:34:49;;;;;;;4.07;1.80;;;8.70;99.80;;;;;;5051668;28;20218;-66
2022/04/05 10:37:28;;;;;;;7.00;2.83;;;9.10;98.90;;;;;;5060277;28;20194;-65
2022/04/05 10:39:56;;;;;;;4.23;1.40;;;9.30;98.50;;;;;;5057926;28;20191;-67
2022/04/05 10:42:25;;;;;;;3.37;1.13;;;9.10;97.40;;;;;;5060253;28;20225;-66
2022/04/05 10:45:12;;;;;;;4.43;1.47;;;8.40;98.10;;;;;;5056125;28;20221;-67
2022/04/05 10:48:18;;;;;;;1.40;0.80;;;8.20;98.40;;;;;;5057447;28;20210;-66
2022/04/05 10:51:07;;;;;;;5.60;1.33;;;8.60;97.40;;;;;;5001073;28;20223;-67
2022/04/05 10:54:17;;;;;;;3.73;1.37;;;8.80;97.90;;;;;;4992804;28;20694;-65
2022/04/05 10:56:27;;;;;;;8.67;1.60;;;9.10;96.80;;;;;;5046670;28;20209;-65
2022/04/05 10:58:52;;;;;;;5.20;1.50;;;9.10;96.70;;;;;;5066136;28;20197;-64
2022/04/05 11:01:35;;;;;;;3.53;1.27;;;8.90;98.00;;;;;;5055636;28;20208;-65
2022/04/05 11:04:12;;;;;;;3.93;1.13;;;9.00;97.40;;;;;;5063646;28;20515;-69
2022/04/05 11:06:59;;;;;;;2.90;0.93;;;9.20;95.20;;;;;;5053583;28;20198;-71
2022/04/05 11:09:26;;;;;;;2.37;0.93;;;8.90;96.30;;;;;;5054454;28;20210;-70
2022/04/05 11:11:53;;;;;;;2.03;1.03;;;9.20;96.60;;;;;;5059828;28;20198;-70
2022/04/05 11:14:38;;;;;;;3.20;1.40;;;9.70;96.40;;;;;;5058175;28;20199;-68
2022/04/05 11:17:06;;;;;;;3.63;1.50;;;9.80;94.20;;;;;;5057028;28;20279;-67
2022/04/05 11:19:36;;;;;;;4.40;1.10;;;9.60;94.30;;;;;;5062266;28;20196;-67
2022/04/05 11:22:20;;;;;;;6.37;1.60;;;9.40;93.30;;;;;;5059777;28;20230;-68
2022/04/05 11:25:00;;;;;;;4.97;1.27;;;9.30;92.80;;;;;;5055077;28;20202;-65
2022/04/05 11:27:33;;;;;;;3.47;1.80;;;9.00;93.10;;;;;;5058065;28;20281;-66
2022/04/05 11:30:20;;;;;;;5.03;1.30;;;9.10;93.30;;;;;;5058242;28;20281;-65
2022/04/05 11:33:12;;;;;;;6.77;1.90;;;9.20;93.20;;;;;;5059708;28;20327;-65
2022/04/05 11:35:44;;;;;;;3.10;1.37;;;9.00;93.60;;;;;;5057785;28;20211;-65
2022/04/05 11:38:27;;;;;;;3.27;1.63;;;9.10;93.80;;;;;;5058522;28;20186;-67
2022/04/05 11:41:00;;;;;;;1.17;1.07;;;8.90;94.20;;;;;;5055283;28;20628;-65
2022/04/05 11:43:29;;;;;;;3.47;1.30;;;9.10;94.40;;;;;;5065406;28;20210;-66
2022/04/05 11:45:57;;;;;;;2.83;1.13;;;9.10;93.80;;;;;;5057226;28;20260;-66
2022/04/05 11:48:26;;;;;;;4.50;1.17;;;9.00;94.70;;;;;;5059308;28;20276;-66
2022/04/05 11:50:52;;;;;;;2.20;1.47;;;9.30;94.50;;;;;;5063493;28;20218;-67
2022/04/05 11:53:23;;;;;;;5.43;1.50;;;9.40;94.10;;;;;;5064121;28;20183;-67
2022/04/05 11:56:10;;;;;;;1.50;1.00;;;9.50;93.10;;;;;;5064744;28;20267;-66
2022/04/05 11:58:38;;;;;;;5.27;1.40;;;9.60;93.30;;;;;;5067031;28;20190;-66
2022/04/05 12:01:06;;;;;;;6.43;1.60;;;9.70;93.70;;;;;;5056048;28;20797;-66
2022/04/05 12:03:47;;;;;;;4.53;0.90;;;9.60;93.90;;;;;;5048627;28;20232;-66
2022/04/05 12:06:17;;;;;;;7.30;1.60;;;9.40;93.20;;;;;;5066279;28;20327;-67
2022/04/05 12:08:43;;;;;;;2.13;0.97;;;9.40;92.80;;;;;;5061458;28;20199;-66
2022/04/05 12:11:09;;;;;;;4.10;1.13;;;9.00;93.50;;;;;;5060018;28;20209;-68
2022/04/05 12:13:35;;;;;;;4.57;1.17;;;9.00;94.40;;;;;;5067622;28;20245;-66
2022/04/05 12:16:03;;;;;;;4.30;1.67;;;8.80;94.30;;;;;;5064297;28;20221;-67
2022/04/05 12:18:29;;;;;;;4.07;1.10;;;8.80;94.80;;;;;;5061848;28;20195;-67
2022/04/05 12:21:00;;;;;;;3.20;1.33;;;8.80;95.00;;;;;;5064823;28;20216;-66
2022/04/05 12:23:38;;;;;;;7.63;1.90;;;8.80;94.80;;;;;;5065171;28;20188;-66
2022/04/05 12:26:24;;;;;;;4.07;1.53;;;8.80;95.40;;;;;;5056856;28;20858;-68
2022/04/05 12:28:55;;;;;;;5.43;2.23;;;8.90;94.50;;;;;;5051873;28;20201;-69
2022/04/05 12:31:23;;;;;;;4.23;1.50;;;9.10;94.00;;;;;;5065430;28;20210;-66
2022/04/05 12:33:59;;;;;;;4.53;1.10;;;9.20;94.00;;;;;;5064003;28;20561;-67
2022/04/05 12:36:34;;;;;;;6.17;1.20;;;9.30;93.80;;;;;;5065250;28;20201;-68
2022/04/05 12:39:03;;;;;;;5.80;1.97;;;9.40;94.20;;;;;;5065019;28;20188;-68
2022/04/05 12:41:29;;;;;;;7.97;3.27;;;9.30;93.80;;;;;;5067194;28;20186;-68
2022/04/05 12:44:05;;;;;;;2.63;1.10;;;9.20;93.80;;;;;;5055458;28;20634;-67
2022/04/05 12:46:50;;;;;;;2.37;1.50;;;9.20;94.40;;;;;;5059532;28;20216;-66
2022/04/05 12:49:22;;;;;;;1.97;1.73;;;9.20;94.60;;;;;;5054647;28;20196;-67
2022/04/05 12:51:49;;;;;;;3.53;1.83;;;9.10;95.60;;;;;;5057570;28;20222;-68
2022/04/05 12:54:32;;;;;;;2.60;1.20;;;9.20;95.50;;;;;;5053536;28;20226;-67
2022/04/05 12:57:40;;;;;;;2.20;1.77;;;9.30;95.40;;;;;;4982450;28;20196;-66
2022/04/05 13:00:19;;;;;;;5.27;1.87;;;9.40;95.30;;;;;;5066477;28;20197;-68
2022/04/05 13:02:55;;;;;;;5.10;2.10;;;9.50;95.60;;;;;;5064874;28;20577;-68